createdAt,value
2019-04-04T00:08:49.546Z,83.00
2019-04-04T00:11:20.226Z,82.10
2019-04-04T00:13:51.369Z,81.70
2019-04-04T00:16:22.915Z,81.50
2019-04-04T00:18:53.696Z,81.20
2019-04-04T00:21:24.537Z,81.20
2019-04-04T00:23:55.773Z,80.80
2019-04-04T00:26:26.782Z,80.70
2019-04-04T00:28:57.574Z,80.50
2019-04-04T00:31:28.736Z,80.70
2019-04-04T00:33:59.533Z,80.30
2019-04-04T00:36:33.665Z,80.00
2019-04-04T00:39:03.071Z,80.40
2019-04-04T00:41:34.456Z,80.20
2019-04-04T00:44:05.793Z,79.70
2019-04-04T00:46:36.975Z,79.60
2019-04-04T00:49:07.976Z,79.30
2019-04-04T00:51:39.023Z,79.20
2019-04-04T00:54:12.067Z,79.00
2019-04-04T00:56:43.314Z,78.50
2019-04-04T00:59:14.418Z,78.50
2019-04-04T01:01:45.622Z,78.50
2019-04-04T01:04:16.476Z,78.20
2019-04-04T01:06:47.465Z,78.10
2019-04-04T01:09:18.748Z,77.90
2019-04-04T01:11:51.246Z,77.60
2019-04-04T01:14:22.012Z,77.50
2019-04-04T01:16:52.877Z,77.20
2019-04-04T01:19:23.867Z,76.90
2019-04-04T01:21:55.286Z,76.50
2019-04-04T01:24:27.117Z,75.80
2019-04-04T01:26:58.923Z,75.70
2019-04-04T01:29:29.740Z,75.30
2019-04-04T01:32:01.037Z,75.30
2019-04-04T01:34:32.278Z,74.90
2019-04-04T01:37:03.772Z,74.70
2019-04-04T01:39:34.839Z,74.00
2019-04-04T01:42:07.176Z,73.40
2019-04-04T01:44:40.050Z,72.80
2019-04-04T01:47:10.900Z,72.70
2019-04-04T01:49:41.733Z,72.00
2019-04-04T01:52:13.362Z,71.30
2019-04-04T01:54:44.282Z,70.70
2019-04-04T01:57:15.219Z,70.50
2019-04-04T01:59:46.333Z,70.30
2019-04-04T02:02:18.424Z,69.80
2019-04-04T02:04:49.478Z,69.80
2019-04-04T02:07:20.441Z,68.80
2019-04-04T02:09:51.597Z,68.00
2019-04-04T02:12:22.643Z,67.50
2019-04-04T02:14:53.889Z,67.60
2019-04-04T02:17:24.697Z,66.70
2019-04-04T02:19:56.409Z,66.20
2019-04-04T02:22:30.717Z,65.10
2019-04-04T02:25:02.862Z,65.00
2019-04-04T02:27:32.516Z,65.30
2019-04-04T02:30:03.349Z,65.30
2019-04-04T02:32:34.285Z,64.40
2019-04-04T02:35:10.008Z,63.60
2019-04-04T02:37:39.478Z,64.10
2019-04-04T02:40:11.278Z,63.40
2019-04-04T02:42:42.177Z,62.80
2019-04-04T02:45:13.158Z,62.80
2019-04-04T02:47:44.202Z,63.30
2019-04-04T02:50:15.657Z,62.80
2019-04-04T02:52:46.955Z,63.20
2019-04-04T02:55:21.138Z,62.30
2019-04-04T02:57:51.985Z,62.30
2019-04-04T03:00:26.297Z,62.80
2019-04-04T03:02:55.461Z,61.90
2019-04-04T03:05:26.386Z,61.30
2019-04-04T03:07:57.287Z,62.70
2019-04-04T03:10:28.495Z,61.80
2019-04-04T03:12:59.602Z,62.20
2019-04-04T03:15:30.533Z,62.20
2019-04-04T03:18:05.308Z,62.00
2019-04-04T03:20:36.086Z,61.90
2019-04-04T03:23:06.958Z,61.80
2019-04-04T03:25:41.192Z,62.40
2019-04-04T03:28:12.143Z,61.30
2019-04-04T03:30:43.203Z,60.90
2019-04-04T03:33:14.448Z,60.80
2019-04-04T03:35:45.311Z,59.60
2019-04-04T03:38:16.381Z,58.90
2019-04-04T03:40:49.734Z,58.40
2019-04-04T03:43:19.386Z,58.40
2019-04-04T03:45:50.322Z,57.90
2019-04-04T03:48:22.121Z,58.30
2019-04-04T03:50:56.569Z,57.30
2019-04-04T03:53:25.780Z,56.80
2019-04-04T03:56:00.197Z,56.90
2019-04-04T03:58:29.466Z,56.90
2019-04-04T04:01:00.423Z,56.70
2019-04-04T04:03:31.688Z,56.60
2019-04-04T04:06:02.607Z,56.30
2019-04-04T04:08:33.538Z,55.60
2019-04-04T04:11:05.755Z,55.50
2019-04-04T04:13:36.998Z,55.70
2019-04-04T04:16:11.288Z,54.70
2019-04-04T04:18:42.226Z,55.00
2019-04-04T04:21:13.217Z,54.60
2019-04-04T04:23:44.364Z,53.90
2019-04-04T04:26:15.097Z,53.40
2019-04-04T04:28:45.868Z,53.40
2019-04-04T04:31:16.961Z,52.50
2019-04-04T04:33:48.218Z,51.80
2019-04-04T04:36:19.036Z,51.40
2019-04-04T04:38:58.791Z,51.90
2019-04-04T04:41:27.803Z,51.10
2019-04-04T04:43:59.004Z,50.20
2019-04-04T04:46:29.936Z,51.10
2019-04-04T04:49:13.574Z,51.40
2019-04-04T04:51:44.456Z,51.30
2019-04-04T04:54:15.405Z,51.20
2019-04-04T04:56:49.975Z,51.60
2019-04-04T04:59:21.443Z,50.30
2019-04-04T05:01:53.484Z,50.30
2019-04-04T05:04:27.850Z,51.20
2019-04-04T05:06:57.389Z,50.50
2019-04-04T05:09:30.231Z,50.60
2019-04-04T05:12:01.035Z,51.30
2019-04-04T05:14:33.535Z,51.30
2019-04-04T05:17:05.172Z,51.30
2019-04-04T05:19:36.880Z,51.30
2019-04-04T05:22:09.243Z,52.10
2019-04-04T05:24:40.499Z,50.80
2019-04-04T05:27:11.514Z,50.20
2019-04-04T05:29:42.954Z,50.80
2019-04-04T05:32:15.456Z,49.50
2019-04-04T05:34:46.170Z,50.00
2019-04-04T05:37:17.029Z,50.00
2019-04-04T05:39:51.131Z,49.80
2019-04-04T05:42:20.462Z,49.70
2019-04-04T05:44:52.048Z,49.10
2019-04-04T05:47:23.816Z,49.60
2019-04-04T05:49:54.855Z,48.40
2019-04-04T05:52:25.703Z,49.20
2019-04-04T05:54:57.576Z,49.40
2019-04-04T05:57:30.146Z,49.30
2019-04-04T06:00:01.436Z,48.70
2019-04-04T06:02:33.523Z,48.30
2019-04-04T06:05:04.488Z,49.50
2019-04-04T06:07:36.418Z,47.40
2019-04-04T06:10:11.815Z,46.00
2019-04-04T06:12:41.942Z,47.20
2019-04-04T06:15:12.982Z,46.20
2019-04-04T06:17:43.962Z,45.10
2019-04-04T06:20:16.138Z,45.90
2019-04-04T06:22:47.472Z,46.00
2019-04-04T06:25:19.125Z,45.80
2019-04-04T06:27:50.312Z,45.20
2019-04-04T06:30:21.617Z,45.00
2019-04-04T06:32:52.885Z,45.40
2019-04-04T06:35:24.327Z,45.60
2019-04-04T06:37:55.988Z,45.10
2019-04-04T06:40:28.155Z,45.90
2019-04-04T06:43:00.136Z,44.90
2019-04-04T06:45:31.025Z,45.00
2019-04-04T06:48:01.858Z,45.00
2019-04-04T06:50:33.388Z,44.40
2019-04-04T06:53:04.540Z,43.40
2019-04-04T06:55:39.886Z,43.40
2019-04-04T06:58:09.314Z,43.70
2019-04-04T07:00:42.081Z,44.70
2019-04-04T07:03:12.862Z,45.60
2019-04-04T07:05:43.834Z,43.90
2019-04-04T07:08:15.185Z,43.00
2019-04-04T07:10:57.343Z,43.20
2019-04-04T07:13:22.123Z,42.00
2019-04-04T07:16:06.017Z,43.30
2019-04-04T07:18:24.336Z,43.70
2019-04-04T07:20:54.941Z,41.50
2019-04-04T07:23:28.303Z,43.00
2019-04-04T07:25:58.652Z,42.10
2019-04-04T07:28:30.969Z,42.10
2019-04-04T07:31:02.485Z,41.80
2019-04-04T07:33:33.273Z,43.20
2019-04-04T07:36:04.504Z,42.70
2019-04-04T07:38:35.471Z,43.50
2019-04-04T07:41:08.306Z,43.40
2019-04-04T07:43:39.632Z,43.30
2019-04-04T07:46:16.693Z,43.40
2019-04-04T07:48:43.691Z,42.80
2019-04-04T07:51:14.678Z,43.30
2019-04-04T07:53:45.695Z,43.10
2019-04-04T07:56:16.936Z,43.10
2019-04-04T07:58:47.830Z,43.50
2019-04-04T08:01:19.216Z,42.40
2019-04-04T08:03:50.470Z,42.20
2019-04-04T08:06:21.287Z,43.00
2019-04-04T08:08:52.026Z,43.00
2019-04-04T08:11:23.799Z,41.40
2019-04-04T08:13:55.309Z,43.20
2019-04-04T08:16:26.155Z,43.50
2019-04-04T08:18:57.094Z,42.30
2019-04-04T08:21:29.103Z,42.40
2019-04-04T08:24:00.211Z,42.70
2019-04-04T08:26:31.405Z,41.70
2019-04-04T08:29:02.125Z,42.80
2019-04-04T08:31:33.116Z,42.30
2019-04-04T08:34:04.445Z,42.60
2019-04-04T08:36:35.931Z,42.70
2019-04-04T08:39:09.645Z,41.80
2019-04-04T08:41:40.478Z,40.70
2019-04-04T08:44:11.761Z,42.40
2019-04-04T08:46:42.604Z,42.70
2019-04-04T08:49:13.855Z,41.30
2019-04-04T08:51:44.622Z,42.20
2019-04-04T08:54:15.596Z,41.80
2019-04-04T08:56:47.947Z,42.20
2019-04-04T08:59:18.650Z,42.00
2019-04-04T09:01:49.436Z,42.40
2019-04-04T09:04:20.182Z,42.10
2019-04-04T09:06:51.139Z,42.50
2019-04-04T09:09:22.173Z,42.20
2019-04-04T09:11:53.378Z,42.70
2019-04-04T09:14:24.403Z,43.00
2019-04-04T09:16:55.300Z,42.80
2019-04-04T09:19:26.478Z,43.00
2019-04-04T09:21:57.178Z,43.30
2019-04-04T09:24:28.575Z,43.00
2019-04-04T09:26:59.559Z,42.90
2019-04-04T09:29:30.650Z,42.80
2019-04-04T09:32:01.604Z,43.00
2019-04-04T09:34:33.266Z,43.50
2019-04-04T09:37:04.217Z,43.50
2019-04-04T09:39:35.450Z,43.20
2019-04-04T09:42:06.804Z,43.20
2019-04-04T09:44:38.343Z,43.60
2019-04-04T09:47:09.389Z,43.90
2019-04-04T09:49:40.456Z,44.00
2019-04-04T09:52:11.474Z,44.00
2019-04-04T09:54:42.504Z,43.20
2019-04-04T09:57:13.526Z,43.20
2019-04-04T09:59:44.475Z,43.60
2019-04-04T10:02:15.750Z,42.40
2019-04-04T10:04:47.377Z,43.80
2019-04-04T10:07:17.981Z,43.50
2019-04-04T10:09:49.647Z,44.00
2019-04-04T10:12:20.862Z,44.20
2019-04-04T10:15:01.969Z,44.50
2019-04-04T10:17:33.220Z,44.10
2019-04-04T10:20:04.802Z,44.60
2019-04-04T10:22:35.775Z,44.70
2019-04-04T10:25:07.711Z,44.20
2019-04-04T10:27:38.813Z,44.40
2019-04-04T10:30:11.661Z,44.70
2019-04-04T10:32:42.495Z,45.00
2019-04-04T10:35:13.764Z,45.00
2019-04-04T10:37:44.907Z,45.30
2019-04-04T10:40:16.478Z,45.30
2019-04-04T10:42:47.552Z,45.40
2019-04-04T10:45:19.514Z,45.70
2019-04-04T10:47:50.552Z,45.70
2019-04-04T10:50:21.723Z,45.80
2019-04-04T10:52:52.722Z,45.80
2019-04-04T10:55:23.684Z,46.10
2019-04-04T10:57:54.674Z,46.30
2019-04-04T11:00:26.019Z,46.40
2019-04-04T11:02:56.981Z,46.50
2019-04-04T11:05:27.757Z,46.60
2019-04-04T11:07:59.474Z,46.70
2019-04-04T11:10:30.557Z,46.70
2019-04-04T11:13:03.011Z,47.00
2019-04-04T11:15:34.446Z,47.20
2019-04-04T11:18:05.898Z,47.30
2019-04-04T11:20:36.891Z,47.40
2019-04-04T11:23:08.006Z,47.50
2019-04-04T11:25:39.030Z,47.70
2019-04-04T11:28:09.762Z,48.00
2019-04-04T11:30:41.080Z,48.00
2019-04-04T11:33:12.437Z,48.30
2019-04-04T11:35:43.279Z,48.60
2019-04-04T11:38:14.861Z,48.80
2019-04-04T11:40:45.858Z,49.00
2019-04-04T11:43:16.869Z,48.90
2019-04-04T11:45:48.204Z,49.20
2019-04-04T11:48:19.034Z,49.40
2019-04-04T11:50:50.130Z,49.40
2019-04-04T11:53:21.686Z,49.60
2019-04-04T11:55:53.116Z,49.70
2019-04-04T11:58:24.073Z,49.90
2019-04-04T12:00:56.713Z,50.00
2019-04-04T12:03:29.038Z,50.10
2019-04-04T12:05:59.657Z,50.20
2019-04-04T12:08:31.217Z,50.30
2019-04-04T12:11:02.153Z,50.30
2019-04-04T12:13:33.214Z,50.50
2019-04-04T12:16:04.417Z,50.70
2019-04-04T12:18:35.920Z,50.80
2019-04-04T12:21:07.074Z,51.50
2019-04-04T12:23:38.643Z,51.50
2019-04-04T12:26:09.535Z,53.20
2019-04-04T12:28:40.626Z,53.10
2019-04-04T12:31:11.928Z,53.60
2019-04-04T12:33:42.876Z,52.70
2019-04-04T12:36:24.046Z,52.60
2019-04-04T12:38:46.486Z,52.90
2019-04-04T12:41:17.534Z,53.00
2019-04-04T12:43:49.073Z,53.00
2019-04-04T12:46:20.530Z,52.80
2019-04-04T12:48:51.879Z,53.00
2019-04-04T12:51:22.668Z,53.20
2019-04-04T12:53:53.692Z,53.30
2019-04-04T12:56:24.617Z,53.60
2019-04-04T12:58:55.559Z,53.90
2019-04-04T13:01:26.713Z,54.60
2019-04-04T13:03:57.942Z,54.60
2019-04-04T13:06:28.951Z,54.80
2019-04-04T13:09:00.076Z,54.90
2019-04-04T13:11:32.007Z,55.10
2019-04-04T13:14:03.053Z,55.20
2019-04-04T13:16:34.294Z,55.50
2019-04-04T13:19:05.228Z,55.50
2019-04-04T13:21:36.009Z,55.70
2019-04-04T13:24:07.589Z,55.80
2019-04-04T13:26:38.588Z,56.00
2019-04-04T13:29:09.432Z,56.10
2019-04-04T13:31:40.707Z,56.30
2019-04-04T13:34:11.604Z,56.40
2019-04-04T13:36:42.617Z,56.60
2019-04-04T13:39:13.842Z,56.90
2019-04-04T13:41:44.698Z,57.20
2019-04-04T13:44:15.881Z,57.30
2019-04-04T13:46:47.088Z,57.50
2019-04-04T13:49:18.226Z,57.60
2019-04-04T13:51:50.821Z,57.80
2019-04-04T13:54:21.957Z,57.90
2019-04-04T13:56:52.984Z,58.00
2019-04-04T13:59:24.488Z,58.20
2019-04-04T14:01:55.834Z,58.40
2019-04-04T14:04:26.825Z,58.70
2019-04-04T14:06:57.690Z,59.00
2019-04-04T14:09:28.964Z,58.50
2019-04-04T14:11:59.835Z,58.40
2019-04-04T14:14:30.825Z,58.50
2019-04-04T14:17:03.247Z,58.50
2019-04-04T14:19:34.233Z,58.60
2019-04-04T14:22:05.139Z,58.60
2019-04-04T14:24:37.069Z,58.60
2019-04-04T14:27:08.131Z,58.40
2019-04-04T14:29:39.087Z,58.20
2019-04-04T14:32:10.261Z,58.00
2019-04-04T14:34:41.134Z,58.00
2019-04-04T14:37:12.049Z,58.00
2019-04-04T14:39:43.647Z,58.00
2019-04-04T14:42:14.652Z,58.00
2019-04-04T14:44:45.664Z,58.20
2019-04-04T14:47:16.952Z,58.10
2019-04-04T14:49:47.984Z,58.10
2019-04-04T14:52:19.739Z,58.00
2019-04-04T14:54:51.581Z,58.10
2019-04-04T14:57:22.426Z,58.70
2019-04-04T14:59:53.501Z,58.30
2019-04-04T15:02:24.719Z,58.40
2019-04-04T15:04:55.634Z,58.60
2019-04-04T15:07:26.743Z,58.60
2019-04-04T15:09:57.758Z,58.80
2019-04-04T15:12:28.463Z,58.80
2019-04-04T15:14:59.342Z,58.90
2019-04-04T15:17:30.320Z,58.90
2019-04-04T15:20:01.276Z,59.10
2019-04-04T15:22:32.349Z,59.20
2019-04-04T15:25:03.525Z,59.20
2019-04-04T15:27:34.867Z,59.30
2019-04-04T15:30:08.024Z,59.40
2019-04-04T15:32:39.270Z,59.50
2019-04-04T15:35:10.434Z,59.50
2019-04-04T15:37:41.488Z,60.30
2019-04-04T15:40:13.032Z,59.60
2019-04-04T15:42:43.846Z,59.70
2019-04-04T15:45:15.676Z,59.70
2019-04-04T15:47:46.570Z,59.80
2019-04-04T15:50:17.630Z,59.80
2019-04-04T15:52:49.038Z,60.00
2019-04-04T15:55:20.250Z,59.90
2019-04-04T15:57:50.879Z,60.10
2019-04-04T16:00:22.358Z,60.50
2019-04-04T16:02:53.425Z,60.50
2019-04-04T16:05:24.387Z,60.80
2019-04-04T16:07:55.275Z,61.10
2019-04-04T16:10:26.058Z,61.20
2019-04-04T16:12:56.732Z,61.00
2019-04-04T16:15:27.980Z,61.00
2019-04-04T16:18:01.178Z,61.10
2019-04-04T16:20:31.222Z,61.10
2019-04-04T16:23:02.215Z,61.00
2019-04-04T16:25:33.078Z,61.00
2019-04-04T16:28:04.206Z,61.00
2019-04-04T16:30:36.151Z,61.00
2019-04-04T16:33:07.032Z,61.10
2019-04-04T16:35:37.942Z,61.20
2019-04-04T16:38:09.251Z,61.10
2019-04-04T16:40:40.080Z,61.20
2019-04-04T16:43:11.175Z,61.30
2019-04-04T16:45:42.475Z,61.30
2019-04-04T16:48:14.149Z,61.40
2019-04-04T16:50:45.372Z,62.00
2019-04-04T16:53:17.031Z,62.00
2019-04-04T16:55:48.145Z,62.40
2019-04-04T16:58:19.066Z,62.30
2019-04-04T17:00:50.148Z,62.80
2019-04-04T17:03:21.164Z,62.90
2019-04-04T17:05:52.137Z,63.10
2019-04-04T17:08:23.619Z,63.60
2019-04-04T17:10:54.683Z,64.30
2019-04-04T17:13:26.239Z,64.40
2019-04-04T17:15:57.501Z,64.60
2019-04-04T17:18:28.892Z,65.50
2019-04-04T17:20:59.862Z,65.30
2019-04-04T17:23:31.775Z,65.10
2019-04-04T17:26:02.558Z,64.90
2019-04-04T17:28:33.357Z,65.20
2019-04-04T17:31:06.953Z,65.10
2019-04-04T17:33:36.972Z,65.20
2019-04-04T17:36:08.416Z,65.70
2019-04-04T17:38:40.254Z,65.50
2019-04-04T17:41:12.054Z,65.80
2019-04-04T17:43:43.069Z,65.80
2019-04-04T18:07:14.275Z,65.60
2019-04-04T18:09:45.639Z,65.70
2019-04-04T18:12:16.999Z,65.70
2019-04-04T18:14:48.211Z,66.00
2019-04-04T18:17:19.140Z,66.80
2019-04-04T18:19:50.408Z,66.10
2019-04-04T18:22:21.631Z,66.40
2019-04-04T18:24:52.503Z,66.50
2019-04-04T18:27:23.471Z,66.50
2019-04-04T18:29:54.303Z,66.10
2019-04-04T18:32:25.308Z,66.10
2019-04-04T18:34:56.748Z,66.20
2019-04-04T18:37:27.688Z,66.30
2019-04-04T18:39:58.986Z,66.70
2019-04-04T18:42:30.072Z,66.50
2019-04-04T18:45:01.044Z,66.50
2019-04-04T18:47:31.839Z,66.50
2019-04-04T18:50:03.131Z,66.30
2019-04-04T18:52:34.168Z,66.50
2019-04-04T18:55:18.739Z,66.60
2019-04-04T18:57:38.857Z,66.40
2019-04-04T19:00:11.980Z,66.60
2019-04-04T19:02:43.599Z,66.50
2019-04-04T19:05:14.904Z,66.30
2019-04-04T19:07:45.811Z,66.70
2019-04-04T19:10:17.702Z,66.30
2019-04-04T19:12:48.821Z,66.50
2019-04-04T19:15:20.249Z,66.50
2019-04-04T19:17:51.544Z,66.40
2019-04-04T19:20:22.535Z,66.60
2019-04-04T19:22:53.247Z,66.80
2019-04-04T19:25:24.490Z,67.00
2019-04-04T19:27:55.555Z,67.10
2019-04-04T19:30:26.578Z,67.20
2019-04-04T19:32:57.665Z,67.30
2019-04-04T19:35:28.491Z,68.30
2019-04-04T19:38:00.513Z,67.50
2019-04-04T19:40:32.169Z,67.70
2019-04-04T19:43:03.214Z,69.40
2019-04-04T19:45:34.144Z,69.30
2019-04-04T19:48:05.164Z,69.20
2019-04-04T19:50:38.833Z,68.90
2019-04-04T19:53:08.451Z,69.40
2019-04-04T19:55:42.300Z,68.90
2019-04-04T19:58:12.137Z,68.90
2019-04-04T20:00:43.412Z,69.30
2019-04-04T20:03:14.635Z,68.60
2019-04-04T20:05:45.579Z,68.50
2019-04-04T20:08:16.514Z,68.80
2019-04-04T20:10:47.886Z,69.30
2019-04-04T20:13:30.367Z,69.40
2019-04-04T20:15:51.040Z,69.90
2019-04-04T20:18:22.374Z,69.60
2019-04-04T20:20:53.341Z,70.00
2019-04-04T20:23:24.585Z,70.10
2019-04-04T20:25:55.613Z,70.80
2019-04-04T20:28:26.304Z,70.50
2019-04-04T20:30:57.528Z,70.80
2019-04-04T20:33:28.850Z,70.60
2019-04-04T20:35:59.739Z,70.70
2019-04-04T20:38:30.969Z,71.70
2019-04-04T20:41:01.991Z,71.10
2019-04-04T20:43:42.774Z,72.00
2019-04-04T20:46:05.614Z,71.70
2019-04-04T20:48:36.744Z,71.60
2019-04-04T20:51:07.859Z,71.70
2019-04-04T20:53:38.829Z,71.50
2019-04-04T20:56:09.706Z,71.50
2019-04-04T20:58:40.506Z,72.00
2019-04-04T21:01:11.902Z,72.20
2019-04-04T21:03:43.001Z,72.20
2019-04-04T21:06:13.845Z,72.10
2019-04-04T21:08:45.131Z,72.10
2019-04-04T21:11:15.902Z,72.00
2019-04-04T21:13:56.043Z,72.10
2019-04-04T21:16:19.330Z,72.40
2019-04-04T21:18:50.022Z,72.60
2019-04-04T21:21:20.961Z,73.00
2019-04-04T21:23:52.108Z,73.30
2019-04-04T21:26:23.110Z,73.40
2019-04-04T21:28:53.884Z,73.20
2019-04-04T21:31:24.866Z,73.40
2019-04-04T21:33:55.790Z,73.90
2019-04-04T21:36:26.723Z,74.20
2019-04-04T21:38:57.893Z,74.30
2019-04-04T21:41:28.865Z,74.10
2019-04-04T21:44:08.757Z,74.40
2019-04-04T21:46:32.175Z,74.20
2019-04-04T21:49:03.211Z,74.30
2019-04-04T21:51:34.165Z,74.30
2019-04-04T21:54:05.120Z,74.50
2019-04-04T21:56:35.946Z,74.50
2019-04-04T21:59:06.872Z,74.10
2019-04-04T22:01:37.999Z,74.70
2019-04-04T22:04:08.981Z,75.30
2019-04-04T22:06:39.849Z,74.10
2019-04-04T22:09:13.695Z,74.00
2019-04-04T22:11:44.667Z,74.10
2019-04-04T22:14:21.707Z,74.20
2019-04-04T22:16:48.253Z,74.30
2019-04-04T22:19:19.451Z,73.90
2019-04-04T22:21:50.853Z,73.90
2019-04-04T22:24:22.436Z,73.70
2019-04-04T22:26:53.382Z,73.60
2019-04-04T22:29:24.348Z,73.70
2019-04-04T22:31:55.495Z,73.90
2019-04-04T22:34:26.321Z,73.80
2019-04-04T22:36:57.309Z,73.40
2019-04-04T22:39:28.734Z,73.40
2019-04-04T22:41:59.641Z,73.80
2019-04-04T22:44:35.174Z,73.90
2019-04-04T22:47:03.077Z,74.30
2019-04-04T22:49:34.339Z,74.10
2019-04-04T22:52:05.162Z,74.40
2019-04-04T22:54:36.188Z,74.20
2019-04-04T22:57:07.194Z,74.40
2019-04-04T22:59:38.179Z,74.10
2019-04-04T23:02:09.553Z,74.10
2019-04-04T23:04:40.566Z,74.50
2019-04-04T23:07:11.357Z,74.50
2019-04-04T23:09:42.620Z,74.80
2019-04-04T23:12:13.763Z,74.70
2019-04-04T23:14:48.427Z,75.00
2019-04-04T23:17:17.048Z,75.00
2019-04-04T23:19:48.001Z,75.70
2019-04-04T23:22:18.872Z,75.40
2019-04-04T23:24:50.069Z,75.50
2019-04-04T23:27:21.231Z,75.50
2019-04-04T23:29:51.990Z,75.80
2019-04-04T23:32:23.056Z,75.70
2019-04-04T23:34:53.885Z,75.80
2019-04-04T23:37:24.983Z,76.00
2019-04-04T23:39:56.124Z,75.80
2019-04-04T23:42:27.213Z,76.10
2019-04-04T23:45:01.165Z,76.10
2019-04-04T23:47:42.179Z,76.10
2019-04-04T23:50:02.798Z,75.80
2019-04-04T23:52:33.886Z,76.30
2019-04-04T23:55:05.327Z,76.30
2019-04-04T23:57:36.419Z,75.90
